createdAt,value
2018-12-16T00:00:57.921Z,7.73
2018-12-16T00:03:32.223Z,8.00
2018-12-16T00:06:06.624Z,7.60
2018-12-16T00:08:40.957Z,7.83
2018-12-16T00:11:15.218Z,7.17
2018-12-16T00:13:49.588Z,7.83
2018-12-16T00:16:24.018Z,7.40
2018-12-16T00:18:58.296Z,7.80
2018-12-16T00:21:32.786Z,7.97
2018-12-16T00:24:07.082Z,8.03
2018-12-16T00:26:52.921Z,8.27
2018-12-16T00:29:27.801Z,6.93
2018-12-16T00:32:02.160Z,8.37
2018-12-16T00:34:36.557Z,8.10
2018-12-16T00:37:10.997Z,7.70
2018-12-16T00:39:45.268Z,8.00
2018-12-16T00:42:19.727Z,8.17
2018-12-16T00:44:54.135Z,8.37
2018-12-16T00:47:28.380Z,7.47
2018-12-16T00:50:02.797Z,9.20
2018-12-16T00:52:37.064Z,9.07
2018-12-16T00:55:11.508Z,8.33
2018-12-16T00:57:45.888Z,8.67
2018-12-16T01:00:20.200Z,8.47
2018-12-16T01:02:54.532Z,7.87
2018-12-16T01:05:28.879Z,8.07
2018-12-16T01:08:03.328Z,8.70
2018-12-16T01:10:37.797Z,8.53
2018-12-16T01:13:12.112Z,8.43
2018-12-16T01:15:46.421Z,7.60
2018-12-16T01:18:20.749Z,8.90
2018-12-16T01:20:54.977Z,8.17
2018-12-16T01:23:29.324Z,9.17
2018-12-16T01:26:03.856Z,8.70
2018-12-16T01:28:38.184Z,8.33
2018-12-16T01:31:12.394Z,9.07
2018-12-16T01:33:46.809Z,8.20
2018-12-16T01:36:21.093Z,8.90
2018-12-16T01:38:55.475Z,9.50
2018-12-16T01:41:29.803Z,9.23
2018-12-16T01:44:04.369Z,9.40
2018-12-16T01:46:38.789Z,8.73
2018-12-16T01:49:13.140Z,9.83
2018-12-16T01:51:47.422Z,9.80
2018-12-16T01:54:21.868Z,8.67
2018-12-16T01:56:56.281Z,9.37
2018-12-16T01:59:30.486Z,9.17
2018-12-16T02:02:04.859Z,10.00
2018-12-16T02:04:39.240Z,9.90
2018-12-16T02:07:13.589Z,9.57
2018-12-16T02:09:48.034Z,8.63
2018-12-16T02:12:22.357Z,9.33
2018-12-16T02:14:56.837Z,9.33
2018-12-16T02:17:31.330Z,9.60
2018-12-16T02:20:05.888Z,10.07
2018-12-16T02:22:40.080Z,9.13
2018-12-16T02:25:14.532Z,10.00
2018-12-16T02:27:48.849Z,9.87
2018-12-16T02:30:28.273Z,9.33
2018-12-16T02:33:02.533Z,10.40
2018-12-16T02:35:36.859Z,9.27
2018-12-16T02:38:11.208Z,8.90
2018-12-16T02:40:45.604Z,9.13
2018-12-16T02:43:19.965Z,8.73
2018-12-16T02:45:54.193Z,8.73
2018-12-16T02:48:28.547Z,7.93
2018-12-16T02:51:02.956Z,8.40
2018-12-16T02:53:37.305Z,9.53
2018-12-16T02:56:11.602Z,8.77
2018-12-16T02:58:45.965Z,8.93
2018-12-16T03:01:20.488Z,9.40
2018-12-16T03:03:54.713Z,9.20
2018-12-16T03:06:29.222Z,9.03
2018-12-16T03:09:05.464Z,9.30
2018-12-16T03:11:39.706Z,8.97
2018-12-16T03:14:13.986Z,8.97
2018-12-16T03:16:48.297Z,8.80
2018-12-16T03:19:22.722Z,8.50
2018-12-16T03:21:57.105Z,8.50
2018-12-16T03:24:31.281Z,9.83
2018-12-16T03:27:05.758Z,9.90
2018-12-16T03:29:40.237Z,9.40
2018-12-16T03:32:14.695Z,9.47
2018-12-16T03:34:48.953Z,9.53
2018-12-16T03:37:23.173Z,9.13
2018-12-16T03:39:57.540Z,8.73
2018-12-16T03:42:31.877Z,9.07
2018-12-16T03:45:06.341Z,9.00
2018-12-16T03:47:40.613Z,9.43
2018-12-16T03:50:14.906Z,9.07
2018-12-16T03:52:49.224Z,8.60
2018-12-16T03:55:23.773Z,8.90
2018-12-16T03:57:58.065Z,9.13
2018-12-16T04:00:32.416Z,8.57
2018-12-16T04:03:06.741Z,9.00
2018-12-16T04:05:41.021Z,8.90
2018-12-16T04:08:15.364Z,8.33
2018-12-16T04:10:49.877Z,9.10
2018-12-16T04:13:24.268Z,8.93
2018-12-16T04:15:58.587Z,8.63
2018-12-16T04:18:33.032Z,8.87
2018-12-16T04:21:07.318Z,9.20
2018-12-16T04:23:41.842Z,8.83
2018-12-16T04:26:16.169Z,8.57
2018-12-16T04:28:50.539Z,8.73
2018-12-16T04:31:24.884Z,9.67
2018-12-16T04:33:59.272Z,7.93
2018-12-16T04:36:33.512Z,7.20
2018-12-16T04:39:07.782Z,8.30
2018-12-16T04:41:42.272Z,8.03
2018-12-16T04:44:16.481Z,7.20
2018-12-16T04:46:50.724Z,7.90
2018-12-16T04:49:24.927Z,8.30
2018-12-16T04:51:59.224Z,7.43
2018-12-16T04:54:33.510Z,8.00
2018-12-16T04:57:07.858Z,7.37
2018-12-16T04:59:42.275Z,7.70
2018-12-16T05:02:16.780Z,8.60
2018-12-16T05:04:51.076Z,7.97
2018-12-16T05:07:25.441Z,7.37
2018-12-16T05:10:10.002Z,8.03
2018-12-16T05:12:44.416Z,9.33
2018-12-16T05:15:18.617Z,7.50
2018-12-16T05:17:53.230Z,7.30
2018-12-16T05:20:27.574Z,7.23
2018-12-16T05:23:02.251Z,7.37
2018-12-16T05:25:36.634Z,7.53
2018-12-16T05:28:10.945Z,6.70
2018-12-16T05:30:45.401Z,6.73
2018-12-16T05:33:19.807Z,6.70
2018-12-16T05:35:54.186Z,7.00
2018-12-16T05:38:28.588Z,7.07
2018-12-16T05:41:02.840Z,6.10
2018-12-16T05:43:37.192Z,6.17
2018-12-16T05:46:11.493Z,6.70
2018-12-16T05:48:45.773Z,6.33
2018-12-16T05:51:20.047Z,7.33
2018-12-16T05:53:54.385Z,6.53
2018-12-16T05:56:28.696Z,7.03
2018-12-16T05:59:03.241Z,6.40
2018-12-16T06:01:37.417Z,6.37
2018-12-16T06:04:11.788Z,5.93
2018-12-16T06:06:46.188Z,6.10
2018-12-16T06:09:20.424Z,5.93
2018-12-16T06:11:54.792Z,5.90
2018-12-16T06:14:29.413Z,6.17
2018-12-16T06:17:03.913Z,6.33
2018-12-16T06:19:38.204Z,6.27
2018-12-16T06:22:12.516Z,6.00
2018-12-16T06:24:46.892Z,5.80
2018-12-16T06:27:21.220Z,5.83
2018-12-16T06:29:55.972Z,6.00
2018-12-16T06:32:30.312Z,6.03
2018-12-16T06:35:04.666Z,6.07
2018-12-16T06:37:38.856Z,5.80
2018-12-16T06:40:13.436Z,5.60
2018-12-16T06:42:47.680Z,5.67
2018-12-16T06:45:22.102Z,5.77
2018-12-16T06:47:56.530Z,5.87
2018-12-16T06:50:30.800Z,5.30
2018-12-16T06:53:05.289Z,6.30
2018-12-16T06:55:43.230Z,6.07
2018-12-16T06:58:15.924Z,5.87
2018-12-16T07:00:50.393Z,6.17
2018-12-16T07:03:24.817Z,5.47
2018-12-16T07:05:59.005Z,6.27
2018-12-16T07:08:33.331Z,6.43
2018-12-16T07:11:07.791Z,5.17
2018-12-16T07:13:42.040Z,6.73
2018-12-16T07:16:16.217Z,6.40
2018-12-16T07:18:50.415Z,6.07
2018-12-16T07:21:24.896Z,5.93
2018-12-16T07:23:59.233Z,6.40
2018-12-16T07:26:33.641Z,4.90
2018-12-16T07:29:08.158Z,5.93
2018-12-16T07:31:42.481Z,6.07
2018-12-16T07:34:16.779Z,5.80
2018-12-16T07:36:51.088Z,6.13
2018-12-16T07:39:25.397Z,6.20
2018-12-16T07:41:59.849Z,6.50
2018-12-16T07:44:34.309Z,6.87
2018-12-16T07:47:08.721Z,6.17
2018-12-16T07:49:43.138Z,5.80
2018-12-16T07:52:17.480Z,6.60
2018-12-16T07:54:52.000Z,5.93
2018-12-16T07:57:26.289Z,6.27
2018-12-16T08:00:00.617Z,6.40
2018-12-16T08:02:34.961Z,5.87
2018-12-16T08:05:09.389Z,6.03
2018-12-16T08:07:43.645Z,6.50
2018-12-16T08:10:18.078Z,6.70
2018-12-16T08:12:52.514Z,6.20
2018-12-16T08:15:26.888Z,5.90
2018-12-16T08:18:01.236Z,6.20
2018-12-16T08:20:35.522Z,5.80
2018-12-16T08:23:09.923Z,6.20
2018-12-16T08:25:44.193Z,6.20
2018-12-16T08:28:18.609Z,6.40
2018-12-16T08:30:52.904Z,6.33
2018-12-16T08:33:27.310Z,6.33
2018-12-16T08:36:01.757Z,6.83
2018-12-16T08:38:36.040Z,6.47
2018-12-16T08:41:10.416Z,6.57
2018-12-16T08:43:44.800Z,6.73
2018-12-16T08:46:19.151Z,6.90
2018-12-16T08:48:53.313Z,6.47
2018-12-16T08:51:27.642Z,5.80
2018-12-16T08:54:01.964Z,6.90
2018-12-16T08:56:36.354Z,6.80
2018-12-16T08:59:10.593Z,5.97
2018-12-16T09:01:44.963Z,6.47
2018-12-16T09:04:19.308Z,6.23
2018-12-16T09:06:53.665Z,6.60
2018-12-16T09:09:28.436Z,6.73
2018-12-16T09:12:02.930Z,6.97
2018-12-16T09:14:37.126Z,6.73
2018-12-16T09:17:11.444Z,6.37
2018-12-16T09:19:45.907Z,6.93
2018-12-16T09:22:20.177Z,6.53
2018-12-16T09:24:54.539Z,6.63
2018-12-16T09:27:28.962Z,6.70
2018-12-16T09:30:03.932Z,6.60
2018-12-16T09:32:38.181Z,6.77
2018-12-16T09:35:12.456Z,7.17
2018-12-16T09:37:46.764Z,6.80
2018-12-16T09:40:20.974Z,6.90
2018-12-16T09:42:55.291Z,7.07
2018-12-16T09:45:31.341Z,7.60
2018-12-16T09:48:05.600Z,6.87
2018-12-16T09:50:39.952Z,7.70
2018-12-16T09:53:14.353Z,7.40
2018-12-16T09:55:48.717Z,7.13
2018-12-16T09:58:22.996Z,7.70
2018-12-16T10:00:57.245Z,7.20
2018-12-16T10:03:31.428Z,7.73
2018-12-16T10:06:05.869Z,7.97
2018-12-16T10:08:40.211Z,7.77
2018-12-16T10:11:14.541Z,8.17
2018-12-16T10:13:48.816Z,8.23
2018-12-16T10:16:23.194Z,8.40
2018-12-16T10:18:57.345Z,7.83
2018-12-16T10:21:31.727Z,8.03
2018-12-16T10:24:06.081Z,8.20
2018-12-16T10:26:40.824Z,7.93
2018-12-16T10:29:15.166Z,7.73
2018-12-16T10:31:49.361Z,7.63
2018-12-16T10:34:23.816Z,8.07
2018-12-16T10:36:58.116Z,8.07
2018-12-16T10:39:32.499Z,8.60
2018-12-16T10:42:06.888Z,9.10
2018-12-16T10:44:41.293Z,9.70
2018-12-16T10:47:15.761Z,8.70
2018-12-16T10:49:50.033Z,8.97
2018-12-16T10:52:24.324Z,8.53
2018-12-16T10:54:58.871Z,9.70
2018-12-16T10:57:33.548Z,9.70
2018-12-16T11:00:12.453Z,9.60
2018-12-16T11:02:46.808Z,9.63
2018-12-16T11:05:21.281Z,9.70
2018-12-16T11:07:55.537Z,9.40
2018-12-16T11:10:30.088Z,8.37
2018-12-16T11:13:05.081Z,13.08
2018-12-16T11:15:39.325Z,10.53
2018-12-16T11:18:13.632Z,10.27
2018-12-16T11:20:47.957Z,8.60
2018-12-16T11:23:22.152Z,9.07
2018-12-16T11:25:57.374Z,9.60
2018-12-16T11:28:31.565Z,9.53
2018-12-16T11:31:06.001Z,10.63
2018-12-16T11:33:40.311Z,9.23
2018-12-16T11:36:14.657Z,9.43
2018-12-16T11:38:48.958Z,9.47
2018-12-16T11:41:23.388Z,9.83
2018-12-16T11:43:57.677Z,9.40
2018-12-16T11:46:32.024Z,9.30
2018-12-16T11:49:06.281Z,11.00
2018-12-16T11:51:40.972Z,8.53
2018-12-16T11:54:15.215Z,10.07
2018-12-16T11:56:49.478Z,9.97
2018-12-16T11:59:23.848Z,10.27
2018-12-16T12:01:58.212Z,9.43
2018-12-16T12:04:32.580Z,9.73
2018-12-16T12:07:06.944Z,9.50
2018-12-16T12:09:41.324Z,9.50
2018-12-16T12:12:15.710Z,10.40
2018-12-16T12:14:49.988Z,10.00
2018-12-16T12:17:24.366Z,9.57
2018-12-16T12:19:58.602Z,10.17
2018-12-16T12:22:33.062Z,9.53
2018-12-16T12:25:07.390Z,11.33
2018-12-16T12:27:41.732Z,10.30
2018-12-16T12:30:16.132Z,10.00
2018-12-16T12:32:50.518Z,9.03
2018-12-16T12:35:25.004Z,9.93
2018-12-16T12:37:59.344Z,9.77
2018-12-16T12:40:33.805Z,10.30
2018-12-16T12:43:08.296Z,9.70
2018-12-16T12:45:42.640Z,9.83
2018-12-16T12:48:17.021Z,9.67
2018-12-16T12:50:51.381Z,10.23
2018-12-16T12:53:25.876Z,10.13
2018-12-16T12:56:00.196Z,9.07
2018-12-16T12:58:34.507Z,10.10
2018-12-16T13:01:08.765Z,9.83
2018-12-16T13:03:43.076Z,10.63
2018-12-16T13:06:17.246Z,10.67
2018-12-16T13:08:51.612Z,10.33
2018-12-16T13:11:25.881Z,10.77
2018-12-16T13:14:00.184Z,11.33
2018-12-16T13:16:34.429Z,10.30
2018-12-16T13:19:08.810Z,10.77
2018-12-16T13:21:43.134Z,10.40
2018-12-16T13:24:17.589Z,9.93
2018-12-16T13:26:51.948Z,10.43
2018-12-16T13:29:26.352Z,10.53
2018-12-16T13:32:00.724Z,10.83
2018-12-16T13:34:35.199Z,10.90
2018-12-16T13:37:09.461Z,11.03
2018-12-16T13:39:43.715Z,9.50
2018-12-16T13:42:18.073Z,10.70
2018-12-16T13:44:52.447Z,10.73
2018-12-16T13:47:26.660Z,9.77
2018-12-16T13:50:01.052Z,10.37
2018-12-16T13:52:35.333Z,9.87
2018-12-16T13:55:09.816Z,10.13
2018-12-16T13:57:44.590Z,10.63
2018-12-16T14:12:02.989Z,10.40
2018-12-16T14:14:37.349Z,10.33
2018-12-16T14:17:27.639Z,10.50
2018-12-16T14:20:01.875Z,11.23
2018-12-16T14:22:36.156Z,10.27
2018-12-16T14:25:10.871Z,9.90
2018-12-16T14:27:45.150Z,10.43
2018-12-16T14:30:19.646Z,11.17
2018-12-16T14:32:57.048Z,11.00
2018-12-16T14:35:31.305Z,9.50
2018-12-16T14:38:06.144Z,11.40
2018-12-16T14:40:40.355Z,10.10
2018-12-16T14:43:14.773Z,10.37
2018-12-16T14:45:49.035Z,11.47
2018-12-16T14:48:23.370Z,10.47
2018-12-16T14:50:57.848Z,11.00
2018-12-16T14:53:32.028Z,11.10
2018-12-16T14:56:06.600Z,11.43
2018-12-16T14:58:41.154Z,10.33
2018-12-16T15:01:15.515Z,10.93
2018-12-16T15:03:49.872Z,10.67
2018-12-16T15:06:24.153Z,10.63
2018-12-16T15:08:58.443Z,11.10
2018-12-16T15:11:32.869Z,10.73
2018-12-16T15:14:07.292Z,10.13
2018-12-16T15:16:41.605Z,11.03
2018-12-16T15:19:15.892Z,11.07
2018-12-16T15:21:50.320Z,10.30
2018-12-16T15:24:24.495Z,11.37
2018-12-16T15:26:58.780Z,10.27
2018-12-16T15:29:33.128Z,10.63
2018-12-16T15:32:07.455Z,11.10
2018-12-16T15:34:41.766Z,10.70
2018-12-16T15:37:16.141Z,11.83
2018-12-16T15:39:50.577Z,11.37
2018-12-16T15:42:24.882Z,10.20
2018-12-16T15:44:59.222Z,11.30
2018-12-16T15:47:33.584Z,11.10
2018-12-16T15:50:08.908Z,10.90
2018-12-16T15:52:43.164Z,11.03
2018-12-16T15:55:17.494Z,11.17
2018-12-16T15:57:51.820Z,11.10
2018-12-16T16:00:26.172Z,10.97
2018-12-16T16:03:00.480Z,10.43
2018-12-16T16:05:35.731Z,10.97
2018-12-16T16:08:16.298Z,10.30
2018-12-16T16:10:46.498Z,10.70
2018-12-16T16:13:20.961Z,11.47
2018-12-16T16:15:55.314Z,11.67
2018-12-16T16:18:29.641Z,11.40
2018-12-16T16:21:04.149Z,10.87
2018-12-16T16:23:38.444Z,10.87
2018-12-16T16:26:16.233Z,11.87
2018-12-16T16:28:49.164Z,10.77
2018-12-16T16:31:23.472Z,12.27
2018-12-16T16:33:58.100Z,15.43
2018-12-16T16:36:32.591Z,13.63
2018-12-16T16:39:06.954Z,11.80
2018-12-16T16:41:41.372Z,11.67
2018-12-16T16:44:15.592Z,11.03
2018-12-16T16:46:49.905Z,14.78
2018-12-16T16:49:24.228Z,11.93
2018-12-16T16:51:58.620Z,12.80
2018-12-16T16:54:32.896Z,11.63
2018-12-16T16:57:07.291Z,11.67
2018-12-16T16:59:41.996Z,10.80
2018-12-16T17:02:16.434Z,11.10
2018-12-16T17:04:50.703Z,10.90
2018-12-16T17:07:24.963Z,11.60
2018-12-16T17:09:59.491Z,11.90
2018-12-16T17:12:33.798Z,11.90
2018-12-16T17:15:08.657Z,11.43
2018-12-16T17:17:42.972Z,10.87
2018-12-16T17:20:17.271Z,12.10
2018-12-16T17:22:52.925Z,11.47
2018-12-16T17:25:27.538Z,11.73
2018-12-16T17:28:01.957Z,11.93
2018-12-16T17:30:36.464Z,11.67
2018-12-16T17:33:11.051Z,11.30
2018-12-16T17:35:47.599Z,11.33
2018-12-16T17:38:22.052Z,12.53
2018-12-16T17:40:57.354Z,12.10
2018-12-16T17:43:31.752Z,11.80
2018-12-16T17:46:07.492Z,11.90
2018-12-16T17:48:41.881Z,11.73
2018-12-16T17:51:16.141Z,11.97
2018-12-16T17:53:50.396Z,13.00
2018-12-16T17:56:24.672Z,11.47
2018-12-16T17:58:59.006Z,12.13
2018-12-16T18:01:33.449Z,11.93
2018-12-16T18:04:10.121Z,12.37
2018-12-16T18:06:44.484Z,11.90
2018-12-16T18:09:18.864Z,12.73
2018-12-16T18:11:53.149Z,12.17
2018-12-16T18:14:27.541Z,12.80
2018-12-16T18:17:02.925Z,14.70
2018-12-16T18:19:37.125Z,12.50
2018-12-16T18:22:14.164Z,12.53
2018-12-16T18:24:47.806Z,11.23
2018-12-16T18:27:22.381Z,12.33
2018-12-16T18:29:56.807Z,11.67
2018-12-16T18:32:31.013Z,11.57
2018-12-16T18:35:06.057Z,11.77
2018-12-16T18:37:40.719Z,16.30
2018-12-16T18:40:15.094Z,14.23
2018-12-16T18:42:49.296Z,12.37
2018-12-16T18:45:23.644Z,12.07
2018-12-16T18:47:57.796Z,11.83
2018-12-16T18:50:32.178Z,12.10
2018-12-16T18:53:06.431Z,13.27
2018-12-16T18:55:40.720Z,13.00
2018-12-16T18:58:14.998Z,13.40
2018-12-16T19:00:49.280Z,12.70
2018-12-16T19:03:23.657Z,12.53
2018-12-16T19:05:58.032Z,13.70
2018-12-16T19:08:32.261Z,14.37
2018-12-16T19:11:06.380Z,14.60
2018-12-16T19:13:40.694Z,15.60
2018-12-16T19:16:15.156Z,14.40
2018-12-16T19:18:49.820Z,14.77
2018-12-16T19:21:24.380Z,14.50
2018-12-16T19:23:58.609Z,14.00
2018-12-16T19:26:32.772Z,14.53
2018-12-16T19:29:06.965Z,15.13
2018-12-16T19:31:41.305Z,14.73
2018-12-16T19:34:15.473Z,14.43
2018-12-16T19:36:49.743Z,14.87
2018-12-16T19:39:24.141Z,14.20
2018-12-16T19:41:58.482Z,15.00
2018-12-16T19:44:32.733Z,17.10
2018-12-16T19:47:07.078Z,15.60
2018-12-16T19:49:41.448Z,14.70
2018-12-16T19:52:15.816Z,16.07
2018-12-16T19:54:50.900Z,16.40
2018-12-16T19:57:25.461Z,15.80
2018-12-16T19:59:59.609Z,15.13
2018-12-16T20:02:34.007Z,15.23
2018-12-16T20:05:12.984Z,16.37
2018-12-16T20:07:47.203Z,14.87
2018-12-16T20:10:21.765Z,14.47
2018-12-16T20:12:56.153Z,15.50
2018-12-16T20:15:30.473Z,14.93
2018-12-16T20:18:04.876Z,14.60
2018-12-16T20:20:39.197Z,14.63
2018-12-16T20:23:13.480Z,16.43
2018-12-16T20:25:47.729Z,14.90
2018-12-16T20:28:22.081Z,16.03
2018-12-16T20:30:56.304Z,14.97
2018-12-16T20:33:30.724Z,15.20
2018-12-16T20:36:05.211Z,14.00
2018-12-16T20:38:39.425Z,15.57
2018-12-16T20:41:13.729Z,14.57
2018-12-16T20:43:47.909Z,14.30
2018-12-16T20:46:22.261Z,14.30
2018-12-16T20:48:56.730Z,14.83
2018-12-16T20:51:31.213Z,14.70
2018-12-16T20:54:05.397Z,14.50
2018-12-16T20:56:39.752Z,15.33
2018-12-16T20:59:14.162Z,14.37
2018-12-16T21:01:48.607Z,13.40
2018-12-16T21:04:22.908Z,13.77
2018-12-16T21:06:57.190Z,13.47
2018-12-16T21:09:31.493Z,15.30
2018-12-16T21:12:10.137Z,12.33
2018-12-16T21:14:50.065Z,13.93
2018-12-16T21:17:29.616Z,15.57
2018-12-16T21:20:04.203Z,16.13
2018-12-16T21:22:38.452Z,14.33
2018-12-16T21:25:12.988Z,13.57
2018-12-16T21:27:47.261Z,12.97
2018-12-16T21:30:21.628Z,14.63
2018-12-16T21:32:56.033Z,14.27
2018-12-16T21:38:30.224Z,13.87
2018-12-16T21:41:04.612Z,14.40
2018-12-16T21:43:38.777Z,13.90
2018-12-16T21:46:13.006Z,15.43
2018-12-16T21:48:47.199Z,15.17
2018-12-16T21:51:21.519Z,15.63
2018-12-16T21:53:55.822Z,15.13
2018-12-16T21:56:30.056Z,16.87
2018-12-16T21:59:04.657Z,17.07
2018-12-16T22:01:38.994Z,16.87
2018-12-16T22:04:13.399Z,17.40
2018-12-16T22:06:47.760Z,18.70
2018-12-16T22:09:22.259Z,18.07
2018-12-16T22:11:56.684Z,18.37
2018-12-16T22:14:30.873Z,18.33
2018-12-16T22:17:05.424Z,17.50
2018-12-16T22:19:39.791Z,18.00
2018-12-16T22:22:14.100Z,17.80
2018-12-16T22:24:48.479Z,18.03
2018-12-16T22:27:22.681Z,18.77
2018-12-16T22:29:57.005Z,19.20
2018-12-16T22:32:31.317Z,19.00
2018-12-16T22:35:05.741Z,19.20
2018-12-16T22:37:40.005Z,19.13
2018-12-16T22:40:14.667Z,21.03
2018-12-16T22:42:48.917Z,19.83
2018-12-16T22:45:23.100Z,19.07
2018-12-16T22:47:57.465Z,18.77
2018-12-16T22:50:31.813Z,19.03
2018-12-16T22:53:06.118Z,18.40
2018-12-16T22:55:40.630Z,18.93
2018-12-16T22:58:14.960Z,18.83
2018-12-16T23:00:55.536Z,20.03
2018-12-16T23:03:29.705Z,18.90
2018-12-16T23:06:04.184Z,18.03
2018-12-16T23:08:38.645Z,18.37
2018-12-16T23:11:12.884Z,19.87
2018-12-16T23:13:47.400Z,18.80
2018-12-16T23:16:21.817Z,18.93
2018-12-16T23:18:55.972Z,18.63
2018-12-16T23:21:30.357Z,17.87
2018-12-16T23:24:04.676Z,18.70
2018-12-16T23:26:39.061Z,19.93
2018-12-16T23:29:13.472Z,19.50
2018-12-16T23:31:47.676Z,19.53
2018-12-16T23:34:22.220Z,21.47
2018-12-16T23:36:56.621Z,20.73
2018-12-16T23:39:30.889Z,21.00
2018-12-16T23:42:05.244Z,21.77
2018-12-16T23:44:39.542Z,21.40
2018-12-16T23:47:13.743Z,21.60
2018-12-16T23:49:48.100Z,21.00
2018-12-16T23:52:22.340Z,20.23
2018-12-16T23:54:56.776Z,20.27
2018-12-16T23:57:31.205Z,20.30
